createdAt,value
2023-04-21T00:03:49.746Z,17.1
2023-04-21T00:09:43.297Z,17.1
2023-04-21T00:15:33.903Z,17.3
2023-04-21T00:21:25.525Z,17.4
2023-04-21T00:27:17.574Z,17.4
2023-04-21T00:32:53.429Z,17.3
2023-04-21T00:38:45.026Z,17.3
2023-04-21T00:44:21.943Z,17.2
2023-04-21T00:49:58.265Z,17.1
2023-04-21T00:55:34.353Z,17.1
2023-04-21T01:07:05.562Z,17.1
2023-04-21T01:12:41.472Z,17.3
2023-04-21T01:18:33.476Z,17.3
2023-04-21T01:24:24.904Z,17.3
2023-04-21T01:30:15.908Z,17.2
2023-04-21T01:36:08.397Z,17.1
2023-04-21T01:41:28.309Z,17.1
2023-04-21T01:52:41.896Z,16.9
2023-04-21T01:58:02.407Z,17.1
2023-04-21T02:03:55.297Z,17.3
2023-04-21T02:09:47.367Z,17.3
2023-04-21T02:15:38.628Z,17.2
2023-04-21T02:21:47.703Z,17.1
2023-04-21T02:27:39.483Z,17.1
2023-04-21T02:39:13.586Z,16.9
2023-04-21T02:45:05.426Z,16.9
2023-04-21T02:50:57.485Z,17.1
2023-04-21T02:56:49.238Z,17.2
2023-04-21T03:02:41.674Z,17.3
2023-04-21T03:08:33.972Z,17.2
2023-04-21T03:14:25.719Z,17.1
2023-04-21T03:20:18.575Z,17.1
2023-04-21T03:26:10.159Z,16.9
2023-04-21T03:31:46.979Z,16.9
2023-04-21T03:37:39.810Z,16.9
2023-04-21T03:43:42.951Z,17.1
2023-04-21T03:49:37.134Z,17.2
2023-04-21T03:55:29.073Z,17.2
2023-04-21T04:01:19.700Z,17.1
2023-04-21T04:07:15.237Z,17.1
2023-04-21T04:18:27.919Z,16.9
2023-04-21T04:24:19.202Z,16.9
2023-04-21T04:35:50.285Z,17.2
2023-04-21T04:41:41.379Z,17.2
2023-04-21T04:47:35.831Z,17.2
2023-04-21T04:53:29.526Z,17.1
2023-04-21T04:59:20.310Z,17.1
2023-04-21T05:10:50.075Z,16.9
2023-04-21T05:16:42.046Z,16.9
2023-04-21T05:22:36.908Z,17.1
2023-04-21T05:28:31.325Z,17.2
2023-04-21T05:34:23.334Z,17.2
2023-04-21T05:40:18.527Z,17.1
2023-04-21T05:46:10.498Z,17.1
2023-04-21T05:51:17.178Z,17.1
2023-04-21T05:56:53.645Z,16.9
2023-04-21T06:02:45.928Z,16.9
2023-04-21T06:14:01.517Z,17.3
2023-04-21T06:19:53.392Z,17.3
2023-04-21T06:25:29.226Z,17.3
2023-04-21T06:31:08.626Z,17.3
2023-04-21T06:36:45.804Z,17.1
2023-04-21T06:42:37.360Z,17.1
2023-04-21T06:59:44.103Z,17.2
2023-04-21T07:05:38.057Z,17.3
2023-04-21T07:11:29.785Z,17.2
2023-04-21T07:17:21.018Z,17.1
2023-04-21T07:23:13.675Z,17.1
2023-04-21T07:34:40.241Z,16.9
2023-04-21T07:40:32.888Z,16.9
2023-04-21T07:46:23.457Z,17.1
2023-04-21T07:52:14.942Z,17.2
2023-04-21T07:58:06.578Z,17.2
2023-04-21T08:03:44.126Z,17.1
2023-04-21T08:09:43.198Z,17.1
2023-04-21T08:32:29.653Z,17.2
2023-04-21T08:39:00.205Z,17.3
2023-04-21T08:44:54.642Z,17.2
2023-04-21T08:50:49.950Z,17.1
2023-04-21T08:57:04.781Z,17.1
2023-04-21T09:08:17.617Z,16.9
2023-04-21T09:14:11.080Z,16.9
2023-04-21T09:19:47.770Z,17.1
2023-04-21T09:25:39.980Z,17.2
2023-04-21T09:31:34.476Z,17.2
2023-04-21T09:37:47.468Z,17.2
2023-04-21T09:44:23.646Z,17.1
2023-04-21T10:03:06.760Z,17.2
2023-04-21T10:09:01.588Z,17.3
2023-04-21T10:14:54.923Z,17.3
2023-04-21T10:20:47.308Z,17.3
2023-04-21T10:26:39.468Z,17.2
2023-04-21T10:32:43.202Z,17.2
2023-04-21T10:38:35.286Z,17.2
2023-04-21T10:44:31.612Z,17.3
2023-04-21T10:50:23.175Z,17.5
2023-04-21T10:56:15.789Z,17.4
2023-04-21T11:02:06.964Z,17.3
2023-04-21T11:08:03.560Z,17.3
2023-04-21T11:13:57.158Z,17.4
2023-04-21T11:19:49.020Z,17.4
2023-04-21T11:25:39.659Z,17.3
2023-04-21T11:31:16.546Z,17.3
2023-04-21T11:37:08.257Z,17.3
2023-04-21T11:42:59.676Z,17.2
2023-04-21T11:48:52.781Z,17.1
2023-04-21T11:54:28.527Z,17.1
2023-04-21T12:00:21.062Z,17.1
2023-04-21T12:11:51.560Z,16.9
2023-04-21T12:17:45.132Z,16.9
2023-04-21T12:23:37.637Z,16.9
2023-04-21T12:29:29.241Z,16.9
2023-04-21T12:35:24.407Z,16.8
2023-04-21T12:41:17.187Z,16.8
2023-04-21T12:47:09.264Z,16.8
2023-04-21T12:52:47.531Z,16.8
2023-04-21T12:58:49.670Z,16.7
2023-04-21T13:04:45.723Z,16.7
2023-04-21T13:10:22.064Z,16.6
2023-04-21T13:16:14.496Z,16.6
2023-04-21T13:22:07.848Z,16.6
2023-04-21T13:27:59.393Z,16.6
2023-04-21T13:33:53.502Z,16.6
2023-04-21T13:39:32.611Z,16.6
2023-04-21T13:45:26.392Z,16.5
2023-04-21T13:51:19.721Z,16.5
2023-04-21T13:57:13.229Z,16.5
2023-04-21T14:02:34.830Z,16.5
2023-04-21T14:08:32.792Z,16.5
2023-04-21T14:14:54.841Z,16.5
2023-04-21T14:20:47.318Z,16.4
2023-04-21T14:26:39.228Z,16.4
2023-04-21T14:32:16.623Z,16.4
2023-04-21T14:37:55.215Z,16.4
2023-04-21T14:43:32.047Z,16.4
2023-04-21T14:49:23.270Z,16.4
2023-04-21T14:55:14.413Z,16.4
2023-04-21T15:01:07.245Z,16.4
2023-04-21T15:06:47.636Z,16.4
2023-04-21T15:12:27.844Z,16.4
2023-04-21T15:18:05.122Z,16.4
2023-04-21T15:24:06.218Z,16.4
2023-04-21T15:29:42.093Z,16.4
2023-04-21T15:35:19.181Z,16.4
2023-04-21T15:41:05.787Z,16.4
2023-04-21T15:46:44.444Z,16.4
2023-04-21T15:52:37.584Z,16.4
2023-04-21T15:58:29.735Z,16.4
2023-04-21T16:04:24.626Z,16.4
2023-04-21T16:10:04.437Z,16.4
2023-04-21T16:16:29.877Z,16.4
2023-04-21T16:22:24.068Z,16.4
2023-04-21T16:28:17.487Z,16.4
2023-04-21T16:34:10.030Z,16.4
2023-04-21T16:40:04.209Z,16.4
2023-04-21T16:45:56.932Z,16.4
2023-04-21T16:51:49.943Z,16.4
2023-04-21T16:57:41.066Z,16.4
2023-04-21T17:03:34.034Z,16.4
2023-04-21T17:09:26.709Z,16.4
2023-04-21T17:15:17.788Z,16.4
2023-04-21T17:21:11.831Z,16.4
2023-04-21T17:27:20.414Z,16.4
2023-04-21T17:33:41.172Z,16.4
2023-04-21T17:39:46.954Z,16.4
2023-04-21T17:45:38.459Z,16.4
2023-04-21T17:51:30.036Z,16.4
2023-04-21T17:57:07.013Z,16.4
2023-04-21T18:02:58.739Z,16.4
2023-04-21T18:08:36.925Z,16.4
2023-04-21T18:14:14.582Z,16.4
2023-04-21T18:19:51.166Z,16.4
2023-04-21T18:25:41.173Z,16.4
2023-04-21T18:31:03.157Z,16.3
2023-04-21T18:36:38.813Z,16.3
2023-04-21T18:41:59.382Z,16.3
2023-04-21T18:47:21.475Z,16.3
2023-04-21T18:52:57.958Z,16.3
2023-04-21T18:58:34.035Z,16.3
2023-04-21T19:04:12.121Z,16.3
2023-04-21T19:10:04.222Z,16.4
2023-04-21T19:16:08.848Z,16.4
2023-04-21T19:22:01.368Z,16.4
2023-04-21T19:27:52.572Z,16.5
2023-04-21T19:33:44.427Z,16.8
2023-04-21T19:39:37.104Z,17.3
2023-04-21T19:45:28.752Z,17.5
2023-04-21T19:51:20.318Z,17.5
2023-04-21T19:57:30.001Z,17.5
2023-04-21T20:03:37.956Z,17.6
2023-04-21T20:09:30.624Z,17.8
2023-04-21T20:15:22.421Z,17.9
2023-04-21T20:21:14.609Z,17.8
2023-04-21T20:26:49.981Z,17.8
2023-04-21T20:32:44.268Z,17.7
2023-04-21T20:38:20.635Z,17.9
2023-04-21T20:44:09.272Z,17.9
2023-04-21T20:50:02.316Z,17.9
2023-04-21T20:55:53.375Z,17.9
2023-04-21T21:01:47.092Z,17.8
2023-04-21T21:07:40.910Z,17.8
2023-04-21T21:13:35.280Z,17.8
2023-04-21T21:19:11.414Z,17.9
2023-04-21T21:25:03.301Z,17.9
2023-04-21T21:30:53.910Z,17.9
2023-04-21T21:36:45.895Z,17.8
2023-04-21T21:42:38.139Z,17.8
2023-04-21T21:48:34.258Z,17.7
2023-04-21T21:54:10.385Z,17.8
2023-04-21T22:00:02.426Z,17.9
2023-04-21T22:05:59.720Z,17.9
2023-04-21T22:11:52.860Z,17.8
2023-04-21T22:17:56.808Z,17.8
2023-04-21T22:23:48.016Z,17.6
2023-04-21T22:29:23.613Z,17.6
2023-04-21T22:35:16.141Z,17.8
2023-04-21T22:41:06.667Z,17.9
2023-04-21T22:46:58.144Z,17.8
2023-04-21T22:52:50.701Z,17.8
2023-04-21T22:58:42.684Z,17.7
2023-04-21T23:04:36.176Z,17.6
2023-04-21T23:10:13.238Z,17.6
2023-04-21T23:16:04.720Z,17.7
2023-04-21T23:21:57.126Z,17.8
2023-04-21T23:27:48.881Z,17.8
2023-04-21T23:33:40.745Z,17.8
2023-04-21T23:39:32.329Z,17.7
2023-04-21T23:45:24.372Z,17.6
2023-04-21T23:51:01.700Z,17.6
2023-04-21T23:56:54.125Z,17.7
